Flight Track Log - Related Links

Times and Time Zones

All times are in EDT time to prevent confusion due to time zone crossing. See the N693PD flight status page for this flight to view local times or setup timezone preferences in your user account.

Time Position Orientation Groundspeed Altitude Reporting Facility
EDT Latitude Longitude Course Direction KTS MPH feet Rate Location/Type
Fri 03:16:57 PM 34.0167 -84.6667 234° Southwest 139 160 3,000  Level Atlanta TRACON
Fri 03:17:51 PM 34.0000 -84.7000 239° Southwest 151 174 4,400 1,600 Climbing Atlanta TRACON
Fri 03:18:57 PM 33.9833 -84.7500 248° West 143 165 6,200 1,600 Climbing Atlanta TRACON
Fri 03:19:51 PM 33.9667 -84.7833 239° Southwest 135 155 7,600 1,421 Climbing Atlanta TRACON
Fri 03:20:51 PM 33.9333 -84.8167 220° Southwest 144 166 8,900 700 Climbing Atlanta TRACON
Fri 03:21:51 PM 33.9167 -84.8667 248° West 187 215 9,000 50 Climbing Atlanta TRACON
Fri 03:22:00 PM 33.8173 -84.9379 234° Southwest  Level FlightAware Approximate
Fri 03:22:51 PM 33.8833 -84.9333 239° Southwest 215 247 9,000  Level Atlanta TRACON
Fri 03:23:58 PM 33.8428 -85.0042 235° Southwest 210 242 9,000 378 Level Atlanta Center
Fri 03:24:58 PM 33.8108 -85.0589 235° Southwest 210 242 9,800 900 Climbing Atlanta Center
Fri 03:25:58 PM 33.8083 -85.1264 267° West 197 227 10,800 600 Climbing Atlanta Center
Fri 03:26:58 PM 33.8033 -85.1964 265° West 202 232 11,000 100 Climbing Atlanta Center
Fri 03:27:58 PM 33.8006 -85.2714 267° West 222 255 11,000 500 Level Atlanta Center
Fri 03:28:58 PM 33.7958 -85.3436 266° West 222 255 12,000 950 Climbing Atlanta Center
Fri 03:29:58 PM 33.7908 -85.4011 264° West 216 249 12,900 1,000 Climbing Atlanta Center
Fri 03:30:58 PM 33.7861 -85.4636 265° West 201 231 14,000 1,050 Climbing Atlanta Center
Fri 03:31:58 PM 33.7811 -85.5233 264° West 189 217 15,000 950 Climbing Atlanta Center
Fri 03:32:58 PM 33.7761 -85.5858 265° West 189 217 15,900 500 Climbing Atlanta Center
Fri 03:33:58 PM 33.7711 -85.6506 265° West 198 228 16,000 450 Climbing Atlanta Center
Fri 03:34:58 PM 33.7661 -85.7206 265° West 203 234 16,800 900 Climbing Atlanta Center
Fri 03:35:58 PM 33.7611 -85.7878 265° West 203 234 17,800 850 Climbing Atlanta Center
Fri 03:36:58 PM 33.7561 -85.8453 264° West 182 209 18,500 800 Climbing Atlanta Center
Fri 03:37:58 PM 33.7489 -85.9050 262° West 182 209 19,400 750 Climbing Atlanta Center
Fri 03:38:58 PM 33.7436 -85.9650 264° West 182 209 20,000 300 Climbing Atlanta Center
Fri 03:39:58 PM 33.7428 -86.0322 269° West 187 215 20,000  Level Atlanta Center
Fri 03:40:58 PM 33.7331 -86.1094 261° West 213 245 20,000  Level Atlanta Center
Fri 03:41:58 PM 33.7275 -86.1894 265° West 232 267 20,000  Level Atlanta Center
Fri 03:42:58 PM 33.7219 -86.2642 265° West 238 274 20,000  Level Atlanta Center
Fri 03:43:58 PM 33.7122 -86.3464 262° West 238 274 20,000  Level Atlanta Center
Fri 03:44:58 PM 33.7044 -86.4211 263° West 238 274 20,000  Level Atlanta Center
Fri 03:45:58 PM 33.6989 -86.4958 265° West 238 274 20,000  Level Atlanta Center
Fri 03:46:58 PM 33.6908 -86.5756 263° West 238 274 20,000  Level Atlanta Center
Fri 03:47:58 PM 33.6831 -86.6525 263° West 238 274 20,000  Level Atlanta Center
Fri 03:48:58 PM 33.6750 -86.7322 263° West 238 274 20,000  Level Atlanta Center
Fri 03:49:58 PM 33.6672 -86.8069 263° West 238 274 20,000  Level Atlanta Center
Fri 03:50:58 PM 33.6611 -86.8839 265° West 238 274 20,000  Level Atlanta Center
Fri 03:51:58 PM 33.6531 -86.9611 263° West 238 274 20,000  Level Atlanta Center
Fri 03:52:58 PM 33.6450 -87.0356 263° West 238 274 20,000  Level Atlanta Center
Fri 03:53:58 PM 33.6369 -87.1128 263° West 238 274 20,000  Level Atlanta Center
Fri 03:54:58 PM 33.6289 -87.1847 262° West 238 274 20,000  Level Atlanta Center
Fri 03:55:58 PM 33.6228 -87.2619 265° West 238 274 20,000  Level Atlanta Center
Fri 03:57:38 PM 33.6089 -87.3842 262° West 228 262 20,000  Level Memphis Center
Fri 03:58:20 PM 33.6042 -87.4417 264° West 228 262 20,000  Level Memphis Center
Fri 03:59:21 PM 33.5953 -87.5092 261° West 228 262 20,000  Level Memphis Center
Fri 04:00:22 PM 33.5869 -87.5994 264° West 231 266 20,000  Level Memphis Center
Fri 04:01:34 PM 33.5783 -87.6869 263° West 232 267 20,000  Level Memphis Center
Fri 04:02:35 PM 33.5675 -87.7694 261° West 230 265 20,000  Level Memphis Center
Fri 04:03:29 PM 33.5628 -87.8369 265° West 228 262 20,000  Level Memphis Center
Fri 04:04:36 PM 33.5517 -87.9169 261° West 229 264 20,000  Level Memphis Center
Fri 04:05:31 PM 33.5447 -87.9869 263° West 229 264 20,000  Level Memphis Center
Fri 04:06:26 PM 33.5378 -88.0544 263° West 230 265 20,000  Level Memphis Center
Fri 04:07:26 PM 33.5286 -88.1294 262° West 232 267 20,000  Level Memphis Center
Fri 04:08:33 PM 33.5178 -88.2194 262° West 233 268 20,000  Level Memphis Center
Fri 04:09:34 PM 33.5086 -88.2944 262° West 230 265 20,000  Level Memphis Center
Fri 04:10:40 PM 33.5014 -88.3742 264° West 228 262 20,000  Level Memphis Center
Fri 04:11:47 PM 33.4903 -88.4617 261° West 226 260 20,000  Level Memphis Center
Fri 04:12:48 PM 33.4853 -88.5364 265° West 226 260 20,000  Level Memphis Center
Fri 04:13:48 PM 33.4842 -88.6111 269° West 226 260 20,000  Level Memphis Center
Fri 04:14:43 PM 33.4850 -88.6786 271° West 225 259 20,000  Level Memphis Center
Fri 04:15:43 PM 33.4839 -88.7533 269° West 225 259 20,000  Level Memphis Center
Fri 04:16:44 PM 33.4850 -88.8253 271° West 225 259 20,000  Level Memphis Center
Fri 04:17:56 PM 33.4839 -88.9125 269° West 244 281 20,000  Level Memphis Center
Fri 04:18:56 PM 33.4828 -88.9897 269° West 250 288 20,000  Level Memphis Center
Fri 04:19:56 PM 33.4833 -89.0619 271° West 245 282 20,000  Level Memphis Center
Fri 04:20:56 PM 33.4800 -89.1369 267° West 228 262 20,000  Level Memphis Center
Fri 04:21:56 PM 33.4808 -89.2117 271° West 228 262 20,000  Level Memphis Center
Fri 04:22:56 PM 33.4792 -89.2839 268° West 228 262 20,000  Level Memphis Center
Fri 04:23:56 PM 33.4778 -89.3611 269° West 228 262 20,000  Level Memphis Center
Fri 04:24:56 PM 33.4764 -89.4358 269° West 233 268 20,000  Level Memphis Center
Fri 04:25:56 PM 33.4747 -89.5106 268° West 233 268 20,000  Level Memphis Center
Fri 04:26:56 PM 33.4753 -89.5853 271° West 233 268 20,000  Level Memphis Center
Fri 04:27:56 PM 33.4736 -89.6675 269° West 233 268 20,000  Level Memphis Center
Fri 04:28:56 PM 33.4719 -89.7397 268° West 233 268 20,000  Level Memphis Center
Fri 04:29:56 PM 33.4722 -89.8119 270° West 228 262 20,000  Level Memphis Center
Fri 04:30:56 PM 33.4706 -89.8842 268° West 228 262 20,000  Level Memphis Center
Fri 04:31:56 PM 33.4686 -89.9564 268° West 228 262 20,000  Level Memphis Center
Fri 04:32:56 PM 33.4667 -90.0261 268° West 223 257 20,000  Level Memphis Center
Fri 04:33:56 PM 33.4397 -90.0908 244° Southwest 212 244 20,000  Level Memphis Center
Fri 04:34:56 PM 33.4086 -90.1506 238° Southwest 212 244 20,000  Level Memphis Center
Fri 04:35:56 PM 33.3775 -90.2131 239° Southwest 223 257 20,000  Level Memphis Center
Fri 04:36:56 PM 33.3503 -90.2753 242° Southwest 223 257 20,000  Level Memphis Center
Fri 04:37:56 PM 33.3211 -90.3372 241° Southwest 223 257 20,000  Level Memphis Center
Fri 04:38:56 PM 33.2919 -90.3994 241° Southwest 223 257 20,000  Level Memphis Center
Fri 04:39:56 PM 33.2647 -90.4567 240° Southwest 223 257 20,000  Level Memphis Center
Fri 04:40:56 PM 33.2375 -90.5186 242° Southwest 218 251 20,000  Level Memphis Center
Fri 04:41:56 PM 33.2083 -90.5783 240° Southwest 218 251 20,000  Level Memphis Center
Fri 04:42:56 PM 33.1789 -90.6403 240° Southwest 218 251 20,000  Level Memphis Center
Fri 04:43:56 PM 33.1517 -90.7022 242° Southwest 218 251 20,000  Level Memphis Center
Fri 04:44:56 PM 33.1242 -90.7617 241° Southwest 218 251 20,000  Level Memphis Center
Fri 04:45:56 PM 33.0950 -90.8233 241° Southwest 218 251 20,000  Level Memphis Center
Fri 04:46:56 PM 33.0653 -90.8803 238° Southwest 218 251 20,000  Level Memphis Center
Fri 04:47:56 PM 33.0381 -90.9397 241° Southwest 218 251 20,000  Level Memphis Center
Fri 04:48:56 PM 33.0106 -90.9989 241° Southwest 213 245 20,000  Level Memphis Center
Fri 04:49:56 PM 32.9853 -91.0606 244° Southwest 213 245 20,000  Level Memphis Center
Fri 04:50:56 PM 32.9661 -91.1272 251° West 208 239 20,000  Level Memphis Center
Fri 04:51:56 PM 32.9489 -91.1892 252° West 208 239 20,000  Level Memphis Center
Fri 04:52:56 PM 32.9297 -91.2508 250° West 208 239 20,000 -200 Level Memphis Center
Fri 04:53:56 PM 32.9106 -91.3150 250° West 208 239 19,600 -450 Descending Memphis Center
Fri 04:54:56 PM 32.8889 -91.3889 251° West 208 239 19,100 -484 Descending Memphis Center
Fri 04:56:37 PM 32.8572 -91.5008 251° West 215 247 18,300 -407 Descending Fort Worth Center
Fri 04:57:38 PM 32.8375 -91.5714 252° West 226 260 18,000 -149 Descending Fort Worth Center
Fri 04:58:38 PM 32.8133 -91.6322 245° Southwest 219 252 18,000  Level Fort Worth Center
Fri 04:59:37 PM 32.7956 -91.7003 253° West 214 246 18,000  Level Fort Worth Center
Fri 05:00:38 PM 32.7753 -91.7633 249° West 214 246 18,000  Level Fort Worth Center
Fri 05:01:38 PM 32.7594 -91.8283 254° West 209 241 18,000  Level Fort Worth Center
Fri 05:02:38 PM 32.7372 -91.8939 248° West 209 241 18,000  Level Fort Worth Center
Fri 05:03:37 PM 32.7192 -91.9569 251° West 209 241 18,000  Level Fort Worth Center
Fri 05:04:38 PM 32.7011 -92.0197 251° West 209 241 18,000  Level Fort Worth Center
Fri 05:05:37 PM 32.6767 -92.0853 246° West 214 246 18,000  Level Fort Worth Center
Fri 05:06:38 PM 32.6586 -92.1506 252° West 214 246 18,000  Level Fort Worth Center
Fri 05:07:38 PM 32.6361 -92.2133 247° West 225 259 18,000  Level Fort Worth Center
Fri 05:08:38 PM 32.6158 -92.2786 250° West 225 259 18,000  Level Fort Worth Center
Fri 05:09:37 PM 32.5958 -92.3489 251° West 220 253 18,000  Level Fort Worth Center
Fri 05:10:38 PM 32.5733 -92.4142 248° West 220 253 18,000  Level Fort Worth Center
Fri 05:11:38 PM 32.5550 -92.4794 252° West 220 253 18,000  Level Fort Worth Center
Fri 05:12:38 PM 32.5367 -92.5444 252° West 213 245 18,000  Level Fort Worth Center
Fri 05:14:38 PM 32.4917 -92.6797 249° West 218 251 18,000  Level Fort Worth Center
Fri 05:15:37 PM 32.4692 -92.7475 249° West 218 251 18,000  Level Fort Worth Center
Fri 05:16:38 PM 32.4428 -92.8228 247° West 238 274 18,000  Level Fort Worth Center
Fri 05:17:38 PM 32.4183 -92.8978 249° West 233 268 18,000  Level Fort Worth Center
Fri 05:18:37 PM 32.3997 -92.9578 250° West 233 268 18,000  Level Fort Worth Center
Fri 05:19:38 PM 32.3753 -93.0328 249° West 227 261 18,000  Level Fort Worth Center
Fri 05:20:37 PM 32.3564 -93.0925 249° West 227 261 18,000  Level Fort Worth Center
Fri 05:21:38 PM 32.3339 -93.1650 250° West 222 255 18,000  Level Fort Worth Center
Fri 05:22:38 PM 32.3147 -93.2222 248° West 215 247 18,000  Level Fort Worth Center
Fri 05:23:37 PM 32.2922 -93.2947 250° West 215 247 18,000  Level Fort Worth Center
Fri 05:24:38 PM 32.2733 -93.3544 250° West 215 247 18,000  Level Fort Worth Center
Fri 05:25:38 PM 32.2525 -93.4267 251° West 215 247 18,000  Level Fort Worth Center
Fri 05:26:37 PM 32.2314 -93.4842 247° West 215 247 18,000  Level Fort Worth Center
Fri 05:27:37 PM 32.2086 -93.5539 249° West 215 247 18,000  Level Fort Worth Center
Fri 05:28:38 PM 32.1875 -93.6183 249° West 215 247 18,000  Level Fort Worth Center
Fri 05:29:37 PM 32.1686 -93.6831 251° West 215 247 18,000  Level Fort Worth Center
Fri 05:30:37 PM 32.1456 -93.7478 247° West 215 247 18,000  Level Fort Worth Center
Fri 05:31:38 PM 32.1264 -93.8122 251° West 215 247 18,000  Level Fort Worth Center
Fri 05:32:38 PM 32.1053 -93.8769 249° West 215 247 18,000  Level Fort Worth Center
Fri 05:33:38 PM 32.0819 -93.9417 247° West 215 247 18,000 -300 Level Fort Worth Center
Fri 05:34:38 PM 32.0608 -94.0086 250° West 215 247 17,400 -950 Descending Fort Worth Center
Fri 05:35:38 PM 32.0358 -94.0856 249° West 237 273 16,100 -706 Descending Fort Worth Center
Fri 05:36:37 PM 32.0128 -94.1572 249° West 237 273 16,000 -50 Descending Fort Worth Center
Fri 05:37:38 PM 31.9894 -94.2267 248° West 237 273 16,000  Level Fort Worth Center
Fri 05:38:37 PM 31.9661 -94.2986 249° West 237 273 16,000  Level Fort Worth Center
Fri 05:39:38 PM 31.9447 -94.3581 247° West 232 267 16,000  Level Fort Worth Center
Fri 05:40:38 PM 31.9214 -94.4322 250° West 232 267 16,000  Level Fort Worth Center
Fri 05:41:38 PM 31.9000 -94.4989 249° West 232 267 16,000  Level Fort Worth Center
Fri 05:42:37 PM 31.8744 -94.5658 246° West 232 267 16,000  Level Fort Worth Center
Fri 05:43:38 PM 31.8528 -94.6350 250° West 232 267 16,000  Level Fort Worth Center
Fri 05:44:38 PM 31.8294 -94.7042 248° West 232 267 16,000  Level Fort Worth Center
Fri 05:45:38 PM 31.8078 -94.7708 249° West 232 267 16,000  Level Fort Worth Center
Fri 05:46:38 PM 31.7822 -94.8400 247° West 232 267 16,000  Level Fort Worth Center
Fri 05:47:38 PM 31.7586 -94.9114 249° West 232 267 16,000  Level Fort Worth Center
Fri 05:48:38 PM 31.7347 -94.9831 249° West 232 267 16,000  Level Fort Worth Center
Fri 05:50:54 PM 31.6833 -95.1328 248° West 228 262 16,000  Level Houston Center
Fri 05:51:56 PM 31.6603 -95.2017 249° West 228 262 16,000  Level Houston Center
Fri 05:52:58 PM 31.6375 -95.2692 248° West 224 258 16,000  Level Houston Center
Fri 05:54:01 PM 31.6128 -95.3386 247° West 229 264 16,000  Level Houston Center
Fri 05:55:03 PM 31.5839 -95.4206 248° West 227 261 16,000  Level Houston Center
Fri 05:56:05 PM 31.5608 -95.4878 248° West 224 258 16,000  Level Houston Center
Fri 05:57:07 PM 31.5369 -95.5558 248° West 225 259 16,000  Level Houston Center
Fri 05:58:09 PM 31.5139 -95.6239 248° West 226 260 16,000  Level Houston Center
Fri 05:59:11 PM 31.4903 -95.6911 248° West 224 258 16,000  Level Houston Center
Fri 06:00:13 PM 31.4631 -95.7717 248° West 223 257 16,000  Level Houston Center
Fri 06:01:15 PM 31.4397 -95.8381 248° West 221 254 16,000  Level Houston Center
Fri 06:02:17 PM 31.4164 -95.9056 248° West 223 257 16,000  Level Houston Center
Fri 06:03:19 PM 31.3931 -95.9719 248° West 222 255 16,000  Level Houston Center
Fri 06:04:21 PM 31.3700 -96.0367 247° West 218 251 16,000  Level Houston Center
Fri 06:05:23 PM 31.3439 -96.1122 248° West 222 255 16,000  Level Houston Center
Fri 06:06:25 PM 31.3197 -96.1800 247° West 223 257 16,000  Level Houston Center
Fri 06:07:27 PM 31.2964 -96.2472 248° West 222 255 16,000  Level Houston Center
Fri 06:08:29 PM 31.2728 -96.3150 248° West 223 257 16,000  Level Houston Center
Fri 06:09:31 PM 31.2489 -96.3825 248° West 222 255 16,000  Level Houston Center
Fri 06:10:33 PM 31.2250 -96.4500 248° West 223 257 16,000  Level Houston Center
Fri 06:11:36 PM 31.2006 -96.5175 247° West 223 257 16,000  Level Houston Center
Fri 06:12:38 PM 31.1722 -96.5956 247° West 222 255 16,000  Level Houston Center
Fri 06:13:40 PM 31.1483 -96.6633 248° West 223 257 16,000  Level Houston Center
Fri 06:14:42 PM 31.1242 -96.7306 247° West 223 257 16,000  Level Houston Center
Fri 06:15:44 PM 31.1006 -96.7969 247° West 220 253 16,000  Level Houston Center
Fri 06:16:46 PM 31.0767 -96.8633 247° West 219 252 16,000  Level Houston Center
Fri 06:17:48 PM 31.0525 -96.9308 247° West 223 257 16,000  Level Houston Center
Fri 06:18:50 PM 31.0281 -96.9989 247° West 224 258 16,000  Level Houston Center
Fri 06:19:52 PM 30.9992 -97.0789 247° West 226 260 16,000  Level Houston Center
Fri 06:20:54 PM 30.9742 -97.1475 247° West 227 261 16,000  Level Houston Center
Fri 06:21:56 PM 30.9481 -97.2181 247° West 227 261 16,000  Level Houston Center
Fri 06:22:58 PM 30.9222 -97.2881 247° West 232 267 16,000  Level Houston Center
Fri 06:24:01 PM 30.8958 -97.3606 247° West 230 265 16,000 -480 Level Houston Center
Fri 06:25:03 PM 30.8700 -97.4325 247° West 237 273 15,000 -968 Descending Houston Center
Fri 06:26:05 PM 30.8433 -97.5069 247° West 246 283 14,000 -1,016 Descending Houston Center
Fri 06:27:07 PM 30.8253 -97.5856 255° West 247 284 12,900 -1,258 Descending Houston Center
Fri 06:28:09 PM 30.8078 -97.6647 256° West 249 287 11,400 -1,403 Descending Houston Center
Fri 06:29:11 PM 30.7889 -97.7436 254° West 251 289 10,000 -1,463 Descending Houston Center
Fri 06:30:12 PM 30.7697 -97.8211 254° West 248 285 8,400 -1,902 Descending Houston Center
Fri 06:31:14 PM 30.7481 -97.9017 253° West 228 262 6,100 -1,984 Descending Houston Center
Fri 06:32:16 PM 30.7317 -97.9719 255° West 224 258 4,300 -968 Descending Houston Center
Fri 06:33:18 PM 30.7192 -98.0414 258° West 221 254 4,100 -97 Descending Houston Center
Fri 06:34:20 PM 30.7075 -98.1067 258° West 212 244 4,100  Level Houston Center
Fri 06:35:22 PM 30.6900 -98.1681 252° West 204 235 4,100  Level Houston Center
Fri 06:36:24 PM 30.6725 -98.2203 249° West 186 214 4,100  Level Houston Center
Fri 06:37:26 PM 30.6519 -98.2672 243° Southwest 170 196 4,100 -290 Level Houston Center
Fri 06:38:28 PM 30.6142 -98.3053 221° Southwest 157 181 3,500 -581 Descending Houston Center

Login

Don't have an account? Register now (free) for customized features, flight alerts, and more!